sensor_id;sensor_type;location;lat;lon;timestamp;P1;durP1;ratioP1;P2;durP2;ratioP2
4634;SDS011;2330;48.158;11.816;2022-09-09T00:03:59;1.10;;;1.00;;
4634;SDS011;2330;48.158;11.816;2022-09-09T00:06:42;1.00;;;0.90;;
4634;SDS011;2330;48.158;11.816;2022-09-09T00:09:21;4.03;;;1.40;;
4634;SDS011;2330;48.158;11.816;2022-09-09T00:11:51;1.33;;;0.90;;
4634;SDS011;2330;48.158;11.816;2022-09-09T00:14:31;1.40;;;1.30;;
4634;SDS011;2330;48.158;11.816;2022-09-09T00:17:13;1.83;;;1.30;;
4634;SDS011;2330;48.158;11.816;2022-09-09T00:20:09;2.00;;;1.53;;
4634;SDS011;2330;48.158;11.816;2022-09-09T00:22:43;6.10;;;1.40;;
4634;SDS011;2330;48.158;11.816;2022-09-09T00:25:30;1.30;;;1.20;;
4634;SDS011;2330;48.158;11.816;2022-09-09T00:28:04;1.10;;;1.00;;
4634;SDS011;2330;48.158;11.816;2022-09-09T00:30:44;1.70;;;1.30;;
4634;SDS011;2330;48.158;11.816;2022-09-09T00:33:15;1.20;;;1.10;;
4634;SDS011;2330;48.158;11.816;2022-09-09T00:35:48;1.73;;;1.10;;
4634;SDS011;2330;48.158;11.816;2022-09-09T00:38:25;7.17;;;1.37;;
4634;SDS011;2330;48.158;11.816;2022-09-09T00:41:00;1.83;;;1.57;;
4634;SDS011;2330;48.158;11.816;2022-09-09T00:43:35;2.97;;;1.53;;
4634;SDS011;2330;48.158;11.816;2022-09-09T00:48:33;1.20;;;1.10;;
4634;SDS011;2330;48.158;11.816;2022-09-09T00:51:15;1.40;;;1.10;;
4634;SDS011;2330;48.158;11.816;2022-09-09T00:54:12;2.30;;;1.60;;
4634;SDS011;2330;48.158;11.816;2022-09-09T00:59:28;1.57;;;1.40;;
4634;SDS011;2330;48.158;11.816;2022-09-09T01:04:44;1.73;;;1.30;;
4634;SDS011;2330;48.158;11.816;2022-09-09T01:07:15;1.50;;;0.97;;
4634;SDS011;2330;48.158;11.816;2022-09-09T01:09:57;2.20;;;1.50;;
4634;SDS011;2330;48.158;11.816;2022-09-09T01:14:56;1.43;;;1.20;;
4634;SDS011;2330;48.158;11.816;2022-09-09T01:20:22;4.40;;;1.37;;
4634;SDS011;2330;48.158;11.816;2022-09-09T01:22:56;3.53;;;2.10;;
4634;SDS011;2330;48.158;11.816;2022-09-09T01:28:27;1.73;;;1.20;;
4634;SDS011;2330;48.158;11.816;2022-09-09T01:30:55;2.00;;;1.33;;
4634;SDS011;2330;48.158;11.816;2022-09-09T01:33:23;8.27;;;1.70;;
4634;SDS011;2330;48.158;11.816;2022-09-09T01:38:26;3.80;;;1.27;;
4634;SDS011;2330;48.158;11.816;2022-09-09T01:40:55;3.30;;;1.53;;
4634;SDS011;2330;48.158;11.816;2022-09-09T01:43:22;1.43;;;1.00;;
4634;SDS011;2330;48.158;11.816;2022-09-09T01:45:51;4.53;;;1.27;;
4634;SDS011;2330;48.158;11.816;2022-09-09T01:48:20;6.73;;;1.30;;
4634;SDS011;2330;48.158;11.816;2022-09-09T01:50:48;1.93;;;1.27;;
4634;SDS011;2330;48.158;11.816;2022-09-09T01:53:15;3.33;;;1.20;;
4634;SDS011;2330;48.158;11.816;2022-09-09T01:55:54;1.70;;;1.43;;
4634;SDS011;2330;48.158;11.816;2022-09-09T01:58:32;2.27;;;1.50;;
4634;SDS011;2330;48.158;11.816;2022-09-09T02:03:51;1.83;;;1.50;;
4634;SDS011;2330;48.158;11.816;2022-09-09T02:06:26;1.77;;;1.20;;
4634;SDS011;2330;48.158;11.816;2022-09-09T02:09:00;1.87;;;1.30;;
4634;SDS011;2330;48.158;11.816;2022-09-09T02:11:30;2.23;;;1.50;;
4634;SDS011;2330;48.158;11.816;2022-09-09T02:14:01;2.70;;;1.10;;
4634;SDS011;2330;48.158;11.816;2022-09-09T02:16:37;4.13;;;1.70;;
4634;SDS011;2330;48.158;11.816;2022-09-09T02:19:09;2.27;;;1.27;;
4634;SDS011;2330;48.158;11.816;2022-09-09T02:21:42;3.70;;;1.50;;
4634;SDS011;2330;48.158;11.816;2022-09-09T02:24:11;3.20;;;1.60;;
4634;SDS011;2330;48.158;11.816;2022-09-09T02:26:42;1.37;;;1.27;;
4634;SDS011;2330;48.158;11.816;2022-09-09T02:29:25;1.33;;;1.23;;
4634;SDS011;2330;48.158;11.816;2022-09-09T02:31:55;5.13;;;1.10;;
4634;SDS011;2330;48.158;11.816;2022-09-09T02:34:28;2.53;;;1.37;;
4634;SDS011;2330;48.158;11.816;2022-09-09T02:36:57;1.97;;;1.13;;
4634;SDS011;2330;48.158;11.816;2022-09-09T02:39:26;3.33;;;1.13;;
4634;SDS011;2330;48.158;11.816;2022-09-09T02:41:52;1.80;;;1.20;;
4634;SDS011;2330;48.158;11.816;2022-09-09T02:44:19;1.07;;;0.97;;
4634;SDS011;2330;48.158;11.816;2022-09-09T02:49:27;1.20;;;1.10;;
4634;SDS011;2330;48.158;11.816;2022-09-09T02:52:17;3.93;;;1.77;;
4634;SDS011;2330;48.158;11.816;2022-09-09T02:54:49;1.20;;;1.13;;
4634;SDS011;2330;48.158;11.816;2022-09-09T02:57:25;5.43;;;1.10;;
4634;SDS011;2330;48.158;11.816;2022-09-09T02:59:56;2.23;;;1.17;;
4634;SDS011;2330;48.158;11.816;2022-09-09T03:02:27;2.13;;;1.00;;
4634;SDS011;2330;48.158;11.816;2022-09-09T03:04:54;2.40;;;1.00;;
4634;SDS011;2330;48.158;11.816;2022-09-09T03:07:21;1.53;;;0.90;;
4634;SDS011;2330;48.158;11.816;2022-09-09T03:09:48;2.80;;;1.10;;
4634;SDS011;2330;48.158;11.816;2022-09-09T03:12:15;1.60;;;1.00;;
4634;SDS011;2330;48.158;11.816;2022-09-09T03:14:42;1.57;;;1.13;;
4634;SDS011;2330;48.158;11.816;2022-09-09T03:17:11;2.03;;;1.40;;
4634;SDS011;2330;48.158;11.816;2022-09-09T03:19:38;1.43;;;1.10;;
4634;SDS011;2330;48.158;11.816;2022-09-09T03:22:05;6.00;;;1.00;;
4634;SDS011;2330;48.158;11.816;2022-09-09T03:24:32;2.87;;;1.23;;
4634;SDS011;2330;48.158;11.816;2022-09-09T03:26:58;1.10;;;1.00;;
4634;SDS011;2330;48.158;11.816;2022-09-09T03:29:25;4.30;;;1.30;;
4634;SDS011;2330;48.158;11.816;2022-09-09T03:31:53;5.40;;;1.57;;
4634;SDS011;2330;48.158;11.816;2022-09-09T03:34:20;2.03;;;1.43;;
4634;SDS011;2330;48.158;11.816;2022-09-09T03:36:46;2.97;;;1.10;;
4634;SDS011;2330;48.158;11.816;2022-09-09T03:39:14;1.23;;;1.13;;
4634;SDS011;2330;48.158;11.816;2022-09-09T03:41:41;6.93;;;1.37;;
4634;SDS011;2330;48.158;11.816;2022-09-09T03:44:08;1.63;;;1.10;;
4634;SDS011;2330;48.158;11.816;2022-09-09T03:46:34;3.83;;;1.10;;
4634;SDS011;2330;48.158;11.816;2022-09-09T03:49:01;3.03;;;1.70;;
4634;SDS011;2330;48.158;11.816;2022-09-09T03:51:28;4.13;;;1.17;;
4634;SDS011;2330;48.158;11.816;2022-09-09T03:53:55;9.73;;;1.30;;
4634;SDS011;2330;48.158;11.816;2022-09-09T03:56:22;1.50;;;1.10;;
4634;SDS011;2330;48.158;11.816;2022-09-09T03:58:49;4.30;;;1.20;;
4634;SDS011;2330;48.158;11.816;2022-09-09T04:01:16;3.30;;;1.60;;
4634;SDS011;2330;48.158;11.816;2022-09-09T04:03:44;1.40;;;1.30;;
4634;SDS011;2330;48.158;11.816;2022-09-09T04:06:11;0.80;;;0.80;;
4634;SDS011;2330;48.158;11.816;2022-09-09T04:08:40;1.27;;;1.17;;
4634;SDS011;2330;48.158;11.816;2022-09-09T04:11:07;1.67;;;1.00;;
4634;SDS011;2330;48.158;11.816;2022-09-09T04:13:36;1.73;;;1.13;;
4634;SDS011;2330;48.158;11.816;2022-09-09T04:16:05;2.70;;;1.30;;
4634;SDS011;2330;48.158;11.816;2022-09-09T04:18:32;2.30;;;1.50;;
4634;SDS011;2330;48.158;11.816;2022-09-09T04:21:00;2.80;;;1.37;;
4634;SDS011;2330;48.158;11.816;2022-09-09T04:23:27;4.13;;;1.20;;
4634;SDS011;2330;48.158;11.816;2022-09-09T04:25:56;4.33;;;1.50;;
4634;SDS011;2330;48.158;11.816;2022-09-09T04:28:25;3.20;;;1.70;;
4634;SDS011;2330;48.158;11.816;2022-09-09T04:30:53;4.93;;;1.00;;
4634;SDS011;2330;48.158;11.816;2022-09-09T04:33:20;1.40;;;1.30;;
4634;SDS011;2330;48.158;11.816;2022-09-09T04:35:48;1.13;;;1.03;;
4634;SDS011;2330;48.158;11.816;2022-09-09T04:38:16;2.10;;;1.20;;
4634;SDS011;2330;48.158;11.816;2022-09-09T04:40:46;2.83;;;1.40;;
4634;SDS011;2330;48.158;11.816;2022-09-09T04:43:14;1.80;;;1.13;;
4634;SDS011;2330;48.158;11.816;2022-09-09T04:45:42;1.40;;;1.30;;
4634;SDS011;2330;48.158;11.816;2022-09-09T04:48:09;2.20;;;1.40;;
4634;SDS011;2330;48.158;11.816;2022-09-09T04:50:35;1.20;;;1.10;;
4634;SDS011;2330;48.158;11.816;2022-09-09T04:53:02;5.93;;;1.10;;
4634;SDS011;2330;48.158;11.816;2022-09-09T04:55:31;1.50;;;1.40;;
4634;SDS011;2330;48.158;11.816;2022-09-09T04:58:02;3.40;;;1.47;;
4634;SDS011;2330;48.158;11.816;2022-09-09T05:00:33;1.30;;;1.20;;
4634;SDS011;2330;48.158;11.816;2022-09-09T05:03:04;1.77;;;1.30;;
4634;SDS011;2330;48.158;11.816;2022-09-09T05:05:32;3.07;;;1.20;;
4634;SDS011;2330;48.158;11.816;2022-09-09T05:08:07;2.60;;;1.50;;
4634;SDS011;2330;48.158;11.816;2022-09-09T05:10:36;2.10;;;1.27;;
4634;SDS011;2330;48.158;11.816;2022-09-09T05:13:04;2.87;;;1.67;;
4634;SDS011;2330;48.158;11.816;2022-09-09T05:15:32;2.17;;;1.40;;
4634;SDS011;2330;48.158;11.816;2022-09-09T05:18:00;3.93;;;1.70;;
4634;SDS011;2330;48.158;11.816;2022-09-09T05:20:27;3.70;;;1.30;;
4634;SDS011;2330;48.158;11.816;2022-09-09T05:22:54;2.70;;;1.67;;
4634;SDS011;2330;48.158;11.816;2022-09-09T05:25:22;1.37;;;1.10;;
4634;SDS011;2330;48.158;11.816;2022-09-09T05:27:52;1.63;;;1.40;;
4634;SDS011;2330;48.158;11.816;2022-09-09T05:30:20;2.90;;;1.10;;
4634;SDS011;2330;48.158;11.816;2022-09-09T05:32:48;1.07;;;1.00;;
4634;SDS011;2330;48.158;11.816;2022-09-09T05:35:15;1.37;;;0.93;;
4634;SDS011;2330;48.158;11.816;2022-09-09T05:37:42;2.73;;;1.67;;
4634;SDS011;2330;48.158;11.816;2022-09-09T05:40:09;1.57;;;1.30;;
4634;SDS011;2330;48.158;11.816;2022-09-09T05:42:37;3.63;;;1.20;;
4634;SDS011;2330;48.158;11.816;2022-09-09T05:45:05;2.13;;;1.70;;
4634;SDS011;2330;48.158;11.816;2022-09-09T05:47:34;2.57;;;1.50;;
4634;SDS011;2330;48.158;11.816;2022-09-09T05:50:01;3.90;;;1.57;;
4634;SDS011;2330;48.158;11.816;2022-09-09T05:52:28;3.67;;;1.73;;
4634;SDS011;2330;48.158;11.816;2022-09-09T05:54:55;2.37;;;1.50;;
4634;SDS011;2330;48.158;11.816;2022-09-09T05:57:23;2.87;;;1.30;;
4634;SDS011;2330;48.158;11.816;2022-09-09T05:59:49;1.20;;;1.10;;
4634;SDS011;2330;48.158;11.816;2022-09-09T06:02:16;1.57;;;1.20;;
4634;SDS011;2330;48.158;11.816;2022-09-09T06:04:43;1.93;;;1.30;;
4634;SDS011;2330;48.158;11.816;2022-09-09T06:07:09;1.37;;;1.20;;
4634;SDS011;2330;48.158;11.816;2022-09-09T06:09:36;4.40;;;1.33;;
4634;SDS011;2330;48.158;11.816;2022-09-09T06:12:03;2.27;;;1.50;;
4634;SDS011;2330;48.158;11.816;2022-09-09T06:14:30;1.73;;;1.53;;
4634;SDS011;2330;48.158;11.816;2022-09-09T06:16:57;2.23;;;1.30;;
4634;SDS011;2330;48.158;11.816;2022-09-09T06:19:24;3.53;;;1.30;;
4634;SDS011;2330;48.158;11.816;2022-09-09T06:21:52;1.63;;;1.53;;
4634;SDS011;2330;48.158;11.816;2022-09-09T06:24:19;3.37;;;1.30;;
4634;SDS011;2330;48.158;11.816;2022-09-09T06:26:46;1.10;;;1.00;;
4634;SDS011;2330;48.158;11.816;2022-09-09T06:29:12;3.23;;;1.63;;
4634;SDS011;2330;48.158;11.816;2022-09-09T06:31:39;1.60;;;0.97;;
4634;SDS011;2330;48.158;11.816;2022-09-09T06:34:08;2.40;;;1.30;;
4634;SDS011;2330;48.158;11.816;2022-09-09T06:36:36;1.10;;;1.00;;
4634;SDS011;2330;48.158;11.816;2022-09-09T06:39:05;2.03;;;1.43;;
4634;SDS011;2330;48.158;11.816;2022-09-09T06:41:39;1.43;;;0.90;;
4634;SDS011;2330;48.158;11.816;2022-09-09T06:44:07;1.03;;;0.93;;
4634;SDS011;2330;48.158;11.816;2022-09-09T06:46:33;1.30;;;1.20;;
4634;SDS011;2330;48.158;11.816;2022-09-09T06:49:02;1.77;;;1.00;;
4634;SDS011;2330;48.158;11.816;2022-09-09T06:51:33;2.40;;;1.20;;
4634;SDS011;2330;48.158;11.816;2022-09-09T06:54:02;4.07;;;1.57;;
4634;SDS011;2330;48.158;11.816;2022-09-09T06:56:36;1.30;;;1.20;;
4634;SDS011;2330;48.158;11.816;2022-09-09T06:59:06;2.07;;;1.10;;
4634;SDS011;2330;48.158;11.816;2022-09-09T07:01:36;1.53;;;1.13;;
4634;SDS011;2330;48.158;11.816;2022-09-09T07:04:07;2.03;;;1.40;;
4634;SDS011;2330;48.158;11.816;2022-09-09T07:06:35;3.40;;;1.00;;
4634;SDS011;2330;48.158;11.816;2022-09-09T07:09:08;1.73;;;1.20;;
4634;SDS011;2330;48.158;11.816;2022-09-09T07:11:39;6.50;;;1.50;;
4634;SDS011;2330;48.158;11.816;2022-09-09T07:14:10;5.60;;;1.33;;
4634;SDS011;2330;48.158;11.816;2022-09-09T07:16:44;1.77;;;1.40;;
4634;SDS011;2330;48.158;11.816;2022-09-09T07:19:11;3.17;;;1.00;;
4634;SDS011;2330;48.158;11.816;2022-09-09T07:21:40;7.03;;;1.27;;
4634;SDS011;2330;48.158;11.816;2022-09-09T07:24:07;2.50;;;1.17;;
4634;SDS011;2330;48.158;11.816;2022-09-09T07:26:37;2.00;;;0.93;;
4634;SDS011;2330;48.158;11.816;2022-09-09T07:29:05;4.80;;;1.23;;
4634;SDS011;2330;48.158;11.816;2022-09-09T07:31:32;2.50;;;1.10;;
4634;SDS011;2330;48.158;11.816;2022-09-09T07:34:02;1.83;;;0.97;;
4634;SDS011;2330;48.158;11.816;2022-09-09T07:36:31;1.47;;;1.20;;
4634;SDS011;2330;48.158;11.816;2022-09-09T07:39:00;1.40;;;1.00;;
4634;SDS011;2330;48.158;11.816;2022-09-09T07:41:30;2.03;;;1.20;;
4634;SDS011;2330;48.158;11.816;2022-09-09T07:44:07;2.03;;;1.40;;
4634;SDS011;2330;48.158;11.816;2022-09-09T07:46:37;2.70;;;1.60;;
4634;SDS011;2330;48.158;11.816;2022-09-09T07:49:06;1.97;;;0.93;;
4634;SDS011;2330;48.158;11.816;2022-09-09T07:51:35;2.90;;;1.30;;
4634;SDS011;2330;48.158;11.816;2022-09-09T07:54:08;3.53;;;1.30;;
4634;SDS011;2330;48.158;11.816;2022-09-09T07:56:37;2.10;;;0.87;;
4634;SDS011;2330;48.158;11.816;2022-09-09T07:59:06;1.57;;;1.27;;
4634;SDS011;2330;48.158;11.816;2022-09-09T08:01:34;2.87;;;0.90;;
4634;SDS011;2330;48.158;11.816;2022-09-09T08:04:09;2.20;;;1.60;;
4634;SDS011;2330;48.158;11.816;2022-09-09T08:06:42;1.40;;;1.17;;
4634;SDS011;2330;48.158;11.816;2022-09-09T08:09:29;2.20;;;1.37;;
4634;SDS011;2330;48.158;11.816;2022-09-09T08:11:58;12.33;;;1.90;;
4634;SDS011;2330;48.158;11.816;2022-09-09T08:14:26;2.60;;;1.67;;
4634;SDS011;2330;48.158;11.816;2022-09-09T08:16:53;5.43;;;1.30;;
4634;SDS011;2330;48.158;11.816;2022-09-09T08:19:20;3.20;;;1.37;;
4634;SDS011;2330;48.158;11.816;2022-09-09T08:21:48;2.50;;;1.50;;
4634;SDS011;2330;48.158;11.816;2022-09-09T08:24:15;5.00;;;2.20;;
4634;SDS011;2330;48.158;11.816;2022-09-09T08:26:43;7.23;;;1.40;;
4634;SDS011;2330;48.158;11.816;2022-09-09T08:29:12;1.43;;;1.20;;
4634;SDS011;2330;48.158;11.816;2022-09-09T08:31:42;3.20;;;1.50;;
4634;SDS011;2330;48.158;11.816;2022-09-09T08:34:10;3.50;;;2.00;;
4634;SDS011;2330;48.158;11.816;2022-09-09T08:36:40;1.90;;;1.60;;
4634;SDS011;2330;48.158;11.816;2022-09-09T08:39:11;1.97;;;1.20;;
4634;SDS011;2330;48.158;11.816;2022-09-09T08:44:37;3.80;;;1.13;;
4634;SDS011;2330;48.158;11.816;2022-09-09T08:47:33;2.80;;;1.07;;
4634;SDS011;2330;48.158;11.816;2022-09-09T08:50:37;2.17;;;1.00;;
4634;SDS011;2330;48.158;11.816;2022-09-09T08:55:39;2.40;;;1.00;;
4634;SDS011;2330;48.158;11.816;2022-09-09T08:58:18;1.70;;;1.10;;
4634;SDS011;2330;48.158;11.816;2022-09-09T09:00:50;4.90;;;1.00;;
4634;SDS011;2330;48.158;11.816;2022-09-09T09:03:28;2.90;;;1.20;;
4634;SDS011;2330;48.158;11.816;2022-09-09T09:06:07;2.47;;;1.07;;
4634;SDS011;2330;48.158;11.816;2022-09-09T09:11:34;1.10;;;1.00;;
4634;SDS011;2330;48.158;11.816;2022-09-09T09:14:03;1.57;;;0.87;;
4634;SDS011;2330;48.158;11.816;2022-09-09T09:16:39;3.53;;;1.27;;
4634;SDS011;2330;48.158;11.816;2022-09-09T09:19:27;2.53;;;0.93;;
4634;SDS011;2330;48.158;11.816;2022-09-09T09:22:01;1.70;;;0.90;;
4634;SDS011;2330;48.158;11.816;2022-09-09T09:27:51;2.37;;;0.97;;
4634;SDS011;2330;48.158;11.816;2022-09-09T09:30:34;1.97;;;1.20;;
4634;SDS011;2330;48.158;11.816;2022-09-09T09:33:18;1.40;;;0.90;;
4634;SDS011;2330;48.158;11.816;2022-09-09T09:35:50;1.10;;;1.00;;
4634;SDS011;2330;48.158;11.816;2022-09-09T09:38:18;1.27;;;1.10;;
4634;SDS011;2330;48.158;11.816;2022-09-09T09:41:12;1.33;;;1.00;;
4634;SDS011;2330;48.158;11.816;2022-09-09T09:43:39;1.30;;;0.97;;
4634;SDS011;2330;48.158;11.816;2022-09-09T09:46:22;1.00;;;0.90;;
4634;SDS011;2330;48.158;11.816;2022-09-09T09:49:05;1.77;;;1.40;;
4634;SDS011;2330;48.158;11.816;2022-09-09T09:51:35;2.80;;;1.60;;
4634;SDS011;2330;48.158;11.816;2022-09-09T09:56:55;4.83;;;1.83;;
4634;SDS011;2330;48.158;11.816;2022-09-09T10:04:40;2.87;;;0.97;;
4634;SDS011;2330;48.158;11.816;2022-09-09T10:07:11;1.90;;;1.10;;
4634;SDS011;2330;48.158;11.816;2022-09-09T10:09:50;1.20;;;1.10;;
4634;SDS011;2330;48.158;11.816;2022-09-09T10:18:25;3.23;;;1.00;;
4634;SDS011;2330;48.158;11.816;2022-09-09T10:27:01;1.93;;;0.87;;
4634;SDS011;2330;48.158;11.816;2022-09-09T10:32:56;1.30;;;0.90;;
4634;SDS011;2330;48.158;11.816;2022-09-09T10:35:43;2.80;;;0.93;;
4634;SDS011;2330;48.158;11.816;2022-09-09T10:38:39;5.97;;;1.57;;
4634;SDS011;2330;48.158;11.816;2022-09-09T10:57:39;3.57;;;0.93;;
4634;SDS011;2330;48.158;11.816;2022-09-09T11:00:23;2.70;;;0.77;;
4634;SDS011;2330;48.158;11.816;2022-09-09T11:02:58;2.00;;;1.07;;
4634;SDS011;2330;48.158;11.816;2022-09-09T11:05:32;2.50;;;1.17;;
4634;SDS011;2330;48.158;11.816;2022-09-09T11:08:20;0.83;;;0.83;;
4634;SDS011;2330;48.158;11.816;2022-09-09T11:10:54;1.13;;;1.03;;
4634;SDS011;2330;48.158;11.816;2022-09-09T11:16:17;4.03;;;1.23;;
4634;SDS011;2330;48.158;11.816;2022-09-09T11:19:09;2.50;;;1.10;;
4634;SDS011;2330;48.158;11.816;2022-09-09T11:21:42;1.90;;;1.00;;
4634;SDS011;2330;48.158;11.816;2022-09-09T11:24:18;1.43;;;0.70;;
4634;SDS011;2330;48.158;11.816;2022-09-09T11:27:00;2.77;;;1.00;;
4634;SDS011;2330;48.158;11.816;2022-09-09T11:29:43;1.63;;;1.10;;
4634;SDS011;2330;48.158;11.816;2022-09-09T11:34:53;2.90;;;0.90;;
4634;SDS011;2330;48.158;11.816;2022-09-09T11:40:28;1.93;;;0.80;;
4634;SDS011;2330;48.158;11.816;2022-09-09T11:43:31;3.30;;;1.10;;
4634;SDS011;2330;48.158;11.816;2022-09-09T11:45:54;1.13;;;0.80;;
4634;SDS011;2330;48.158;11.816;2022-09-09T11:48:39;2.57;;;0.73;;
4634;SDS011;2330;48.158;11.816;2022-09-09T11:53:50;2.77;;;0.67;;
4634;SDS011;2330;48.158;11.816;2022-09-09T11:56:25;1.20;;;0.70;;
4634;SDS011;2330;48.158;11.816;2022-09-09T11:58:58;1.53;;;0.80;;
4634;SDS011;2330;48.158;11.816;2022-09-09T12:01:41;0.83;;;0.60;;
4634;SDS011;2330;48.158;11.816;2022-09-09T12:06:51;1.13;;;0.80;;
4634;SDS011;2330;48.158;11.816;2022-09-09T12:09:24;1.57;;;0.83;;
4634;SDS011;2330;48.158;11.816;2022-09-09T12:12:06;1.17;;;0.60;;
4634;SDS011;2330;48.158;11.816;2022-09-09T12:17:21;0.97;;;0.70;;
4634;SDS011;2330;48.158;11.816;2022-09-09T12:20:00;0.70;;;0.50;;
4634;SDS011;2330;48.158;11.816;2022-09-09T12:22:54;2.60;;;0.70;;
4634;SDS011;2330;48.158;11.816;2022-09-09T12:25:50;1.17;;;0.70;;
4634;SDS011;2330;48.158;11.816;2022-09-09T12:28:27;1.73;;;0.70;;
4634;SDS011;2330;48.158;11.816;2022-09-09T12:31:26;0.80;;;0.60;;
4634;SDS011;2330;48.158;11.816;2022-09-09T12:34:11;1.83;;;0.70;;
4634;SDS011;2330;48.158;11.816;2022-09-09T12:36:42;1.67;;;0.70;;
4634;SDS011;2330;48.158;11.816;2022-09-09T12:39:20;2.20;;;0.87;;
4634;SDS011;2330;48.158;11.816;2022-09-09T12:41:57;0.70;;;0.70;;
4634;SDS011;2330;48.158;11.816;2022-09-09T12:44:24;2.33;;;0.70;;
4634;SDS011;2330;48.158;11.816;2022-09-09T12:46:54;0.83;;;0.50;;
4634;SDS011;2330;48.158;11.816;2022-09-09T12:52:01;1.73;;;0.77;;
4634;SDS011;2330;48.158;11.816;2022-09-09T12:54:57;2.53;;;0.63;;
4634;SDS011;2330;48.158;11.816;2022-09-09T12:57:28;1.97;;;0.70;;
4634;SDS011;2330;48.158;11.816;2022-09-09T13:00:05;1.00;;;0.60;;
4634;SDS011;2330;48.158;11.816;2022-09-09T13:02:49;0.70;;;0.60;;
4634;SDS011;2330;48.158;11.816;2022-09-09T13:05:34;1.30;;;0.77;;
4634;SDS011;2330;48.158;11.816;2022-09-09T13:08:04;0.80;;;0.70;;
4634;SDS011;2330;48.158;11.816;2022-09-09T13:10:38;0.60;;;0.50;;
4634;SDS011;2330;48.158;11.816;2022-09-09T13:13:35;0.90;;;0.50;;
4634;SDS011;2330;48.158;11.816;2022-09-09T13:16:04;1.90;;;0.80;;
4634;SDS011;2330;48.158;11.816;2022-09-09T13:18:35;2.03;;;0.70;;
4634;SDS011;2330;48.158;11.816;2022-09-09T13:21:04;0.90;;;0.60;;
4634;SDS011;2330;48.158;11.816;2022-09-09T13:23:35;2.63;;;1.03;;
4634;SDS011;2330;48.158;11.816;2022-09-09T13:26:19;1.47;;;0.70;;
4634;SDS011;2330;48.158;11.816;2022-09-09T13:28:52;0.70;;;0.60;;
4634;SDS011;2330;48.158;11.816;2022-09-09T13:31:27;1.20;;;0.87;;
4634;SDS011;2330;48.158;11.816;2022-09-09T13:33:59;1.13;;;0.70;;
4634;SDS011;2330;48.158;11.816;2022-09-09T13:36:40;1.53;;;1.10;;
4634;SDS011;2330;48.158;11.816;2022-09-09T13:39:17;1.00;;;0.70;;
4634;SDS011;2330;48.158;11.816;2022-09-09T13:41:45;0.90;;;0.60;;
4634;SDS011;2330;48.158;11.816;2022-09-09T13:44:17;1.00;;;0.60;;
4634;SDS011;2330;48.158;11.816;2022-09-09T13:47:03;1.50;;;0.80;;
4634;SDS011;2330;48.158;11.816;2022-09-09T13:49:35;2.37;;;1.00;;
4634;SDS011;2330;48.158;11.816;2022-09-09T13:54:36;4.53;;;0.93;;
4634;SDS011;2330;48.158;11.816;2022-09-09T13:57:03;0.90;;;0.60;;
4634;SDS011;2330;48.158;11.816;2022-09-09T13:59:30;1.10;;;0.67;;
4634;SDS011;2330;48.158;11.816;2022-09-09T14:02:17;1.00;;;0.70;;
4634;SDS011;2330;48.158;11.816;2022-09-09T14:04:44;0.97;;;0.83;;
4634;SDS011;2330;48.158;11.816;2022-09-09T14:07:12;0.90;;;0.63;;
4634;SDS011;2330;48.158;11.816;2022-09-09T14:09:43;0.90;;;0.60;;
4634;SDS011;2330;48.158;11.816;2022-09-09T14:12:15;0.90;;;0.70;;
4634;SDS011;2330;48.158;11.816;2022-09-09T14:14:43;1.57;;;0.87;;
4634;SDS011;2330;48.158;11.816;2022-09-09T14:17:12;1.23;;;0.80;;
4634;SDS011;2330;48.158;11.816;2022-09-09T14:19:38;1.23;;;1.03;;
4634;SDS011;2330;48.158;11.816;2022-09-09T14:22:05;4.73;;;1.00;;
4634;SDS011;2330;48.158;11.816;2022-09-09T14:24:32;2.40;;;0.90;;
4634;SDS011;2330;48.158;11.816;2022-09-09T14:27:00;2.53;;;1.00;;
4634;SDS011;2330;48.158;11.816;2022-09-09T14:29:26;2.97;;;0.70;;
4634;SDS011;2330;48.158;11.816;2022-09-09T14:31:53;1.07;;;0.90;;
4634;SDS011;2330;48.158;11.816;2022-09-09T14:34:20;4.67;;;0.93;;
4634;SDS011;2330;48.158;11.816;2022-09-09T14:36:46;0.90;;;0.80;;
4634;SDS011;2330;48.158;11.816;2022-09-09T14:39:13;1.80;;;0.80;;
4634;SDS011;2330;48.158;11.816;2022-09-09T14:41:40;0.80;;;0.70;;
4634;SDS011;2330;48.158;11.816;2022-09-09T14:44:06;0.77;;;0.57;;
4634;SDS011;2330;48.158;11.816;2022-09-09T14:46:34;0.90;;;0.60;;
4634;SDS011;2330;48.158;11.816;2022-09-09T14:49:01;2.97;;;0.80;;
4634;SDS011;2330;48.158;11.816;2022-09-09T14:51:28;1.23;;;0.70;;
4634;SDS011;2330;48.158;11.816;2022-09-09T14:53:56;3.00;;;0.50;;
4634;SDS011;2330;48.158;11.816;2022-09-09T14:56:28;1.40;;;0.83;;
4634;SDS011;2330;48.158;11.816;2022-09-09T14:58:57;2.03;;;0.83;;
4634;SDS011;2330;48.158;11.816;2022-09-09T15:01:27;0.93;;;0.70;;
4634;SDS011;2330;48.158;11.816;2022-09-09T15:03:56;2.07;;;0.60;;
4634;SDS011;2330;48.158;11.816;2022-09-09T15:06:24;2.10;;;0.70;;
4634;SDS011;2330;48.158;11.816;2022-09-09T15:08:53;0.70;;;0.60;;
4634;SDS011;2330;48.158;11.816;2022-09-09T15:11:20;1.30;;;0.80;;
4634;SDS011;2330;48.158;11.816;2022-09-09T15:13:50;0.97;;;0.80;;
4634;SDS011;2330;48.158;11.816;2022-09-09T15:16:19;1.27;;;0.80;;
4634;SDS011;2330;48.158;11.816;2022-09-09T15:18:50;1.17;;;0.83;;
4634;SDS011;2330;48.158;11.816;2022-09-09T15:21:18;0.70;;;0.60;;
4634;SDS011;2330;48.158;11.816;2022-09-09T15:23:47;1.37;;;0.87;;
4634;SDS011;2330;48.158;11.816;2022-09-09T15:26:14;3.43;;;2.07;;
4634;SDS011;2330;48.158;11.816;2022-09-09T15:28:42;1.87;;;0.80;;
4634;SDS011;2330;48.158;11.816;2022-09-09T15:31:14;1.10;;;0.70;;
4634;SDS011;2330;48.158;11.816;2022-09-09T15:33:48;1.63;;;0.90;;
4634;SDS011;2330;48.158;11.816;2022-09-09T15:36:23;1.57;;;0.80;;
4634;SDS011;2330;48.158;11.816;2022-09-09T15:38:51;1.47;;;0.70;;
4634;SDS011;2330;48.158;11.816;2022-09-09T15:41:19;2.70;;;0.83;;
4634;SDS011;2330;48.158;11.816;2022-09-09T15:43:48;1.43;;;0.70;;
4634;SDS011;2330;48.158;11.816;2022-09-09T15:48:43;1.57;;;1.00;;
4634;SDS011;2330;48.158;11.816;2022-09-09T15:51:14;1.30;;;0.83;;
4634;SDS011;2330;48.158;11.816;2022-09-09T15:54:00;1.63;;;0.80;;
4634;SDS011;2330;48.158;11.816;2022-09-09T15:56:28;1.20;;;0.70;;
4634;SDS011;2330;48.158;11.816;2022-09-09T15:58:59;5.17;;;0.80;;
4634;SDS011;2330;48.158;11.816;2022-09-09T16:01:28;3.53;;;0.83;;
4634;SDS011;2330;48.158;11.816;2022-09-09T16:03:57;0.90;;;0.73;;
4634;SDS011;2330;48.158;11.816;2022-09-09T16:06:26;2.30;;;1.00;;
4634;SDS011;2330;48.158;11.816;2022-09-09T16:08:55;2.77;;;0.70;;
4634;SDS011;2330;48.158;11.816;2022-09-09T16:11:27;1.23;;;0.80;;
4634;SDS011;2330;48.158;11.816;2022-09-09T16:13:55;3.53;;;0.93;;
4634;SDS011;2330;48.158;11.816;2022-09-09T16:16:23;1.40;;;0.80;;
4634;SDS011;2330;48.158;11.816;2022-09-09T16:18:52;1.10;;;0.70;;
4634;SDS011;2330;48.158;11.816;2022-09-09T16:21:22;2.60;;;0.80;;
4634;SDS011;2330;48.158;11.816;2022-09-09T16:23:56;1.43;;;0.80;;
4634;SDS011;2330;48.158;11.816;2022-09-09T16:26:25;2.60;;;0.70;;
4634;SDS011;2330;48.158;11.816;2022-09-09T16:28:53;2.53;;;0.83;;
4634;SDS011;2330;48.158;11.816;2022-09-09T16:31:21;1.37;;;1.20;;
4634;SDS011;2330;48.158;11.816;2022-09-09T16:33:49;1.43;;;0.80;;
4634;SDS011;2330;48.158;11.816;2022-09-09T16:36:18;0.70;;;0.60;;
4634;SDS011;2330;48.158;11.816;2022-09-09T16:38:46;2.63;;;0.90;;
4634;SDS011;2330;48.158;11.816;2022-09-09T16:41:13;1.43;;;0.53;;
4634;SDS011;2330;48.158;11.816;2022-09-09T16:43:40;3.10;;;1.00;;
4634;SDS011;2330;48.158;11.816;2022-09-09T16:46:14;2.20;;;0.97;;
4634;SDS011;2330;48.158;11.816;2022-09-09T16:48:44;2.10;;;1.00;;
4634;SDS011;2330;48.158;11.816;2022-09-09T16:51:17;1.70;;;0.83;;
4634;SDS011;2330;48.158;11.816;2022-09-09T16:53:45;1.70;;;0.67;;
4634;SDS011;2330;48.158;11.816;2022-09-09T16:56:13;0.93;;;0.67;;
4634;SDS011;2330;48.158;11.816;2022-09-09T16:58:42;3.60;;;1.00;;
4634;SDS011;2330;48.158;11.816;2022-09-09T17:01:11;2.20;;;0.87;;
4634;SDS011;2330;48.158;11.816;2022-09-09T17:03:40;0.97;;;0.73;;
4634;SDS011;2330;48.158;11.816;2022-09-09T17:06:11;6.00;;;0.93;;
4634;SDS011;2330;48.158;11.816;2022-09-09T17:08:38;1.57;;;0.93;;
4634;SDS011;2330;48.158;11.816;2022-09-09T17:11:11;1.80;;;0.83;;